Airfield :
LOGIN :

Register | Disclaimer

   EN    FR    IT 

 










Legend :    VFR   Marginal VFR   IFR   Intensive IFR   Very Intensive IFR
Visi :
Ceiling :
>= 8 km
>= 3000ft
5 to 8 km
1000 to 3000 ft
1500m to 5 km
500 to 1000 ft
800 to 1500m
200 to 500 ft
< 800m
< 200 ft
Symbols :   Thunderstorms  Fog  Heavy snow  Heavy precipitations  Wind > 20 kt
SIGMETs :     Misc.  Thunderstorms  Icing  Turbulence  Mountain Waves  Volcanic Ashes







- Airport Elevation : 353 ft
- IATA code : LIN


LIML - Milano Linate

CURRENT METAR :
  • 210250Z VRB02KT 9999 SCT050 14/14 Q1016 NOSIG

EXPIRED METARs :
  • 210220Z 28001KT 9999 SCT050 14/14 Q1016 NOSIG
  • 210150Z 30002KT 9999 SCT050 15/14 Q1016 NOSIG
  • 210120Z VRB01KT 9999 BKN050 15/14 Q1016 NOSIG
  • 210050Z VRB02KT 9999 BKN050 15/13 Q1016 NOSIG
  • 210020Z VRB02KT 9999 SCT060 15/14 Q1016 NOSIG

TAF TAF LIML
Valid from the 21 at 00:00 until the 22 at 00:00 UTC


202300Z 2100/2124 VRB05KT 9999 BKN050
TEMPO 2100/2103 4000 TSRA
No reported NOTAMs for that airfield.
1 SIGMET reported for the Milano FIR (LIMM) :
 
Embedded thunderstorms
LIMM SIGMET 1 VALID 210105/210505 LIIP
LIMM MILANO FIR EMBD TS FCST WI N4606 E00903 - N4625 E00827 - N4553 E00645 - N4406 E00652 - N4359 E00733 - N4429 E00847 - N4442 E00916 - N4606 E00903 TOP FL320 STNR NC=



MET'MAP, your aeronautical weather chart ! - Copyright ORBIFLY December 2007 - Disclaimer

ORBIFLY MET'MAP TEAM :

Programming & Development : Alexandra Zaïnal
Concept & Development : Baudouin d'Aumeries
Co-Development & Prog : Marc-Olivier Méhu
Technical & hardware support : Manuel Goepfert

Contact : metmap@orbifly.com




SOURCES & CREDITS :

   NOAA